Pagina principală
METAR-TAF:

METAR-TAF

Aeroporturi :

Lahaina, Hawaii, Statele Unite ale Americii

Latitudine: 21-01N, longitudine: 156-38W, elevație: 40 m

METAR: lipsă

Ora: 05:49 (15:49 UTC)

Prognoză

Raportul a fost făcut în urmă cu 16 ore și 14 de minute, la 23:35 UTC
Prognoză valabilă de la 21 ora 00 UTC la 21 ora 24 UTC
Vânt 11 kt de la Est/Nord-est
Vizibilitate: 10 km
Nori împrăștiați la o înălțime de 2500 picior
Nori fragmentați la o înălțime de 4000 picior
De la 21 ora 0600 UTC
Vânt 10 kt de la Nord/Nord-est
Vizibilitate: 10 km
Nori puțini la o înălțime de 2500 picior
De la 21 ora 1800 UTC
Vânt 11 kt de la Est/Nord-est
Vizibilitate: 10 km
Nori împrăștiați la o înălțime de 2500 picior
Nori împrăștiați la o înălțime de 4000 picior

TAF: PHJH 202335Z 2100/2124 06011KT P6SM SCT025 BKN040 FM210600 02010KT P6SM FEW025 FM211800 06011KT P6SM SCT025 SCT040 AMD NOT SKED

Observații și prognoze meteo pentru peste 4.000 de aeroporturi (rapoarte METAR și TAF).

Stațiile disponibile sunt reprezentate pe hartă prin puncte galbene și roșii.

Țineți indicatorul mouse-ului pe punctul dorit pentru a vedea denumirea stației.

Apoi, faceți clic pentru a vedea observațiile și prognozele meteorologice.

Pentru a schimba harta: Pentru mărire, faceți clic pe butoanele verzi cu cruce neagră; pentru micșorare, pe butonul verde cu o liniuță; pentru hărți învecinate, pe săgețile verzi.


METAR-TAF: